Skip Navigation Links Skip Navigation Links

Current Weather

New River Valley, Dublin, Va.

For information only: do not use for flight planning or navigation.
Latest weather
Observation time Tuesday, June 25, 2019 1:55 PM EDT
Local time Tuesday, June 25, 2019 2:10 PM EDT
Flight conditions Visual Meteorological Conditions
Winds
Wind direction West-Northwest (290°)
Wind speed 13 mph
Wind gusting to 17 mph
Visibility 10 mi.
Sky condition
Ceiling 7,000 ft. overcast
Cloud layer scattered clouds 5,500 ft.
Cloud layer overcast 7,000 ft.
Temperature 76°F
Dewpoint 65°F
Altimeter 30.10 in.Hg
Derived measurements
Relative humidity 68%
Density altitude 3303 ft.
Climate data
Remarks
Fully automated report.
Automated weather observing station with precipitation discriminator.
METAR KPSK 251755Z AUTO 29011G15KT 10SM SCT055 OVC070 25/18 A3010 RMK AO2 T02460184 10257 20212

Settings

Location code

InnerDrive.Weather 4.0.6770.0 Release CLR 4.0.30319.42000
Copyright ©2018 Inner Drive Technology. All rights reserved. Portions Copyright ©1986-2018 David Braverman.

Find weather

Site navigation


Skip Navigation Links

Place info

Page info

PayPal - The safer, easier way to pay online!

Return home.

Copyright ©2019 Inner Drive Technology. Purveyors of fine, hand-crafted computer software. Page printed 2019-06-25T18:10:21 UTC.